Time;durP1;ratioP1;P1;durP2;ratioP2;P2;SDS_P1;SDS_P2;PMS_P1;PMS_P2;Temp;Humidity;BMP_temperature;BMP_pressure;BME280_temperature;BME280_humidity;BME280_pressure;Samples;Min_cycle;Max_cycle;Signal;HPM_P1;HPM_P2
2021/05/16 00:00:22;;;;;;;1.35;0.70;;;22.30;41.70;;;;;;5013612;28;20038;-55
2021/05/16 00:02:48;;;;;;;1.10;0.70;;;22.30;41.70;;;;;;5013599;28;20315;-55
2021/05/16 00:05:16;;;;;;;1.02;0.63;;;22.30;41.80;;;;;;5013681;28;20029;-54
2021/05/16 00:07:42;;;;;;;0.60;0.57;;;22.30;41.80;;;;;;5011875;28;20105;-55
2021/05/16 00:10:09;;;;;;;1.08;0.55;;;22.30;41.80;;;;;;5014105;28;20394;-51
2021/05/16 00:12:36;;;;;;;1.20;0.88;;;22.30;41.80;;;;;;5014388;28;20040;-55
2021/05/16 00:15:05;;;;;;;1.02;0.60;;;22.20;41.70;;;;;;5013350;28;20112;-54
2021/05/16 00:17:30;;;;;;;1.55;0.75;;;22.20;41.70;;;;;;5012268;28;20357;-54
2021/05/16 00:19:56;;;;;;;1.65;0.80;;;22.20;41.70;;;;;;5013114;28;20038;-53
2021/05/16 00:22:22;;;;;;;1.63;0.70;;;22.20;41.70;;;;;;5012805;28;20057;-54
2021/05/16 00:24:48;;;;;;;1.05;0.60;;;22.20;41.70;;;;;;5013732;28;20412;-52
2021/05/16 00:27:14;;;;;;;1.60;0.70;;;22.20;41.80;;;;;;5013317;28;20112;-57
2021/05/16 00:29:40;;;;;;;1.50;0.80;;;22.20;41.80;;;;;;5013536;28;20408;-55
2021/05/16 00:32:06;;;;;;;0.90;0.57;;;22.20;41.80;;;;;;5013752;28;20061;-58
2021/05/16 00:34:32;;;;;;;1.02;0.70;;;22.20;41.80;;;;;;5011997;28;20030;-57
2021/05/16 00:36:59;;;;;;;2.47;0.88;;;22.20;41.80;;;;;;5013139;28;20828;-53
2021/05/16 00:39:25;;;;;;;1.73;1.00;;;22.20;41.80;;;;;;5011726;28;20072;-52
2021/05/16 00:41:52;;;;;;;1.73;0.77;;;22.20;41.80;;;;;;5014076;28;20034;-51
2021/05/16 00:44:19;;;;;;;0.82;0.70;;;22.20;41.80;;;;;;5011879;28;20034;-53
2021/05/16 00:46:45;;;;;;;1.70;0.82;;;22.20;41.90;;;;;;4994868;28;20040;-55
2021/05/16 00:49:13;;;;;;;1.95;0.68;;;22.10;41.80;;;;;;5012949;28;20095;-54
2021/05/16 00:51:39;;;;;;;2.03;0.90;;;22.20;41.80;;;;;;5013073;28;20355;-52
2021/05/16 00:54:06;;;;;;;1.05;0.80;;;22.10;41.80;;;;;;5011787;28;20022;-52
2021/05/16 00:56:32;;;;;;;1.30;0.70;;;22.10;41.80;;;;;;5012719;28;20385;-54
2021/05/16 00:59:00;;;;;;;3.10;1.08;;;22.10;41.90;;;;;;5010440;28;20034;-52
2021/05/16 01:01:27;;;;;;;2.17;1.02;;;22.10;41.90;;;;;;5011288;28;20117;-53
2021/05/16 01:03:58;;;;;;;1.38;0.63;;;22.10;41.90;;;;;;5011125;28;20049;-56
2021/05/16 01:06:23;;;;;;;2.00;0.93;;;22.10;41.90;;;;;;5012002;28;20330;-55
2021/05/16 01:08:50;;;;;;;2.88;1.25;;;22.10;42.00;;;;;;5011358;28;20038;-54
2021/05/16 01:11:17;;;;;;;2.05;0.80;;;22.10;42.00;;;;;;5011381;28;20493;-50
2021/05/16 01:13:49;;;;;;;1.60;1.05;;;22.10;42.00;;;;;;5012429;28;20033;-55
2021/05/16 01:16:15;;;;;;;1.25;0.77;;;22.10;42.00;;;;;;5011234;28;20054;-56
2021/05/16 01:18:43;;;;;;;2.40;1.13;;;22.10;42.00;;;;;;5012871;28;20052;-57
2021/05/16 01:21:09;;;;;;;1.52;0.73;;;22.10;42.00;;;;;;5010632;28;20734;-57
2021/05/16 01:23:46;;;;;;;2.28;0.95;;;22.10;42.00;;;;;;5011093;28;20124;-57
2021/05/16 01:26:15;;;;;;;1.60;0.98;;;22.10;42.00;;;;;;5010815;28;20022;-56
2021/05/16 01:28:43;;;;;;;3.33;0.80;;;22.10;42.00;;;;;;5011210;28;20121;-55
2021/05/16 01:31:12;;;;;;;2.42;1.10;;;22.10;42.00;;;;;;5011401;28;20365;-54
2021/05/16 01:33:39;;;;;;;2.17;1.05;;;22.00;42.00;;;;;;5012424;28;20080;-48
2021/05/16 01:36:05;;;;;;;2.58;1.17;;;22.10;42.00;;;;;;5011331;28;20028;-55
2021/05/16 01:38:31;;;;;;;3.00;1.05;;;22.00;42.00;;;;;;5010831;28;20049;-55
2021/05/16 01:40:58;;;;;;;1.65;0.82;;;22.00;42.00;;;;;;5012278;28;20026;-55
2021/05/16 01:43:38;;;;;;;2.28;0.93;;;22.10;42.10;;;;;;5015873;28;20114;-53
2021/05/16 01:46:05;;;;;;;2.42;0.80;;;22.00;42.00;;;;;;5011129;28;20504;-54
2021/05/16 01:48:30;;;;;;;1.23;0.80;;;22.00;42.10;;;;;;5011656;28;20037;-53
2021/05/16 01:50:56;;;;;;;3.60;1.00;;;22.00;42.10;;;;;;5012550;28;20096;-50
2021/05/16 01:53:26;;;;;;;2.42;1.00;;;22.00;42.10;;;;;;5012136;28;20087;-54
2021/05/16 01:55:53;;;;;;;2.40;1.00;;;22.00;42.10;;;;;;5012099;28;20441;-54
2021/05/16 01:58:19;;;;;;;2.38;1.20;;;22.00;42.10;;;;;;5012453;28;20113;-56
2021/05/16 02:00:45;;;;;;;1.75;0.95;;;22.00;42.10;;;;;;5011809;28;20060;-55
2021/05/16 02:03:33;;;;;;;3.22;1.20;;;22.00;42.10;;;;;;5010838;28;20117;-55
2021/05/16 02:06:00;;;;;;;2.35;1.27;;;22.00;42.10;;;;;;5010590;28;20024;-52
2021/05/16 02:08:28;;;;;;;2.50;0.95;;;22.00;42.10;;;;;;5010847;28;20440;-57
2021/05/16 02:10:55;;;;;;;2.25;1.10;;;22.00;42.10;;;;;;5002520;28;21276;-57
2021/05/16 02:13:22;;;;;;;3.15;1.30;;;22.00;42.10;;;;;;5010265;28;20370;-53
2021/05/16 02:16:05;;;;;;;2.10;1.17;;;22.00;42.10;;;;;;5010475;28;20046;-53
2021/05/16 02:18:32;;;;;;;2.17;0.90;;;22.00;42.10;;;;;;5011417;28;20037;-52
2021/05/16 02:21:02;;;;;;;3.80;1.33;;;22.00;42.10;;;;;;5009293;28;20030;-50
2021/05/16 02:23:28;;;;;;;2.53;1.20;;;22.00;42.10;;;;;;4993880;28;20140;-51
2021/05/16 02:25:55;;;;;;;2.15;0.98;;;22.00;42.20;;;;;;5009970;28;20088;-53
2021/05/16 02:28:24;;;;;;;2.97;1.30;;;22.00;42.20;;;;;;5010033;28;20046;-51
2021/05/16 02:30:52;;;;;;;2.25;0.93;;;22.00;42.10;;;;;;5011011;28;20033;-53
2021/05/16 02:33:18;;;;;;;2.80;1.40;;;22.00;42.10;;;;;;5009703;28;20064;-52
2021/05/16 02:35:44;;;;;;;3.25;1.00;;;22.00;42.20;;;;;;5010459;28;20377;-55
2021/05/16 02:38:10;;;;;;;3.35;1.20;;;21.90;42.10;;;;;;5009876;28;20025;-56
2021/05/16 02:40:36;;;;;;;3.88;1.45;;;21.90;42.10;;;;;;5011913;28;20353;-53
2021/05/16 02:43:03;;;;;;;1.77;1.02;;;21.90;42.10;;;;;;5014153;28;20120;-56
2021/05/16 02:45:30;;;;;;;2.20;0.90;;;21.90;42.10;;;;;;5014950;28;20092;-50
2021/05/16 02:48:01;;;;;;;3.63;1.35;;;21.90;42.10;;;;;;5015145;28;20026;-52
2021/05/16 02:50:31;;;;;;;3.17;1.15;;;21.90;42.10;;;;;;5013244;28;20113;-54
2021/05/16 02:52:58;;;;;;;2.63;1.10;;;21.90;42.10;;;;;;5015498;28;20034;-52
2021/05/16 02:55:27;;;;;;;2.38;1.10;;;21.90;42.10;;;;;;5014280;28;20037;-52
2021/05/16 02:57:53;;;;;;;2.40;1.10;;;21.90;42.70;;;;;;5015355;28;20117;-53
2021/05/16 03:00:23;;;;;;;3.25;1.33;;;21.90;42.10;;;;;;5013789;28;20048;-53
2021/05/16 03:02:49;;;;;;;3.20;1.55;;;21.90;42.10;;;;;;5014181;28;20037;-56
2021/05/16 03:05:15;;;;;;;3.08;1.27;;;21.90;42.10;;;;;;5014426;28;20480;-53
2021/05/16 03:07:46;;;;;;;3.15;1.25;;;21.90;42.70;;;;;;5012114;28;20318;-53
2021/05/16 03:10:12;;;;;;;4.13;1.63;;;21.90;42.10;;;;;;5012973;28;20026;-53
2021/05/16 03:12:37;;;;;;;4.28;1.52;;;21.90;42.10;;;;;;5015845;28;20049;-54
2021/05/16 03:15:05;;;;;;;2.35;1.20;;;21.90;42.10;;;;;;5014069;28;20458;-54
2021/05/16 03:17:31;;;;;;;2.50;1.05;;;21.90;42.10;;;;;;5016145;28;20444;-51
2021/05/16 03:19:57;;;;;;;4.43;1.65;;;21.90;42.10;;;;;;5014419;28;20128;-51
2021/05/16 03:22:23;;;;;;;3.55;1.30;;;21.80;42.00;;;;;;5013455;28;20430;-54
2021/05/16 03:24:51;;;;;;;3.25;1.38;;;21.90;42.10;;;;;;5013148;28;20044;-53
2021/05/16 03:27:17;;;;;;;2.72;1.23;;;21.80;42.00;;;;;;5012991;28;20030;-54
2021/05/16 03:29:43;;;;;;;2.65;1.40;;;21.90;42.10;;;;;;5014307;28;20045;-50
2021/05/16 03:32:08;;;;;;;3.95;1.90;;;21.90;42.10;;;;;;5013564;28;20113;-56
2021/05/16 03:34:35;;;;;;;3.55;1.20;;;21.80;42.00;;;;;;5014511;28;20441;-52
2021/05/16 03:37:03;;;;;;;3.72;1.40;;;21.80;42.00;;;;;;5014081;28;20045;-57
2021/05/16 03:39:29;;;;;;;4.05;1.40;;;21.80;42.00;;;;;;5013940;28;20038;-54
2021/05/16 03:41:56;;;;;;;3.13;1.50;;;21.80;42.00;;;;;;5014261;28;20360;-53
2021/05/16 03:44:25;;;;;;;4.25;1.60;;;21.80;42.00;;;;;;5014405;28;20072;-55
2021/05/16 03:46:51;;;;;;;2.35;0.98;;;21.80;42.00;;;;;;5014550;28;20311;-54
2021/05/16 03:49:18;;;;;;;2.75;1.30;;;21.80;42.00;;;;;;5014057;28;20160;-57
2021/05/16 03:51:44;;;;;;;3.33;1.40;;;21.80;42.00;;;;;;5013758;28;20036;-57
2021/05/16 03:54:11;;;;;;;3.00;1.50;;;21.80;42.00;;;;;;5012676;28;20445;-55
2021/05/16 03:56:37;;;;;;;3.40;1.70;;;21.80;42.00;;;;;;5014217;28;20443;-54
2021/05/16 03:59:04;;;;;;;3.22;1.40;;;21.80;42.00;;;;;;5013757;28;20441;-49
2021/05/16 04:01:31;;;;;;;3.53;1.40;;;21.80;41.90;;;;;;5015655;28;20034;-54
2021/05/16 04:03:57;;;;;;;3.65;1.52;;;21.80;41.90;;;;;;5013492;28;20105;-53
2021/05/16 04:06:24;;;;;;;3.78;1.30;;;21.80;41.90;;;;;;5014350;28;20073;-55
2021/05/16 04:08:49;;;;;;;3.60;1.65;;;21.80;41.90;;;;;;5012873;28;20436;-54
2021/05/16 04:11:15;;;;;;;3.00;1.40;;;21.80;41.90;;;;;;5014092;28;20026;-53
2021/05/16 04:13:41;;;;;;;3.70;1.40;;;21.80;41.90;;;;;;5013986;28;20030;-55
2021/05/16 04:16:08;;;;;;;4.97;1.40;;;21.80;41.90;;;;;;5013394;28;20085;-52
2021/05/16 04:18:34;;;;;;;4.15;1.50;;;21.80;41.90;;;;;;5013739;28;20022;-54
2021/05/16 04:21:01;;;;;;;3.13;1.33;;;21.80;41.90;;;;;;5012871;28;20037;-53
2021/05/16 04:23:27;;;;;;;3.55;1.60;;;21.80;41.90;;;;;;5014513;28;20038;-52
2021/05/16 04:25:53;;;;;;;6.18;2.30;;;21.80;41.90;;;;;;5013034;28;20022;-52
2021/05/16 04:28:19;;;;;;;3.95;1.80;;;21.80;41.90;;;;;;5013541;28;20102;-52
2021/05/16 04:30:45;;;;;;;3.03;1.58;;;21.70;41.80;;;;;;5014045;28;20041;-51
2021/05/16 04:33:11;;;;;;;2.88;1.40;;;21.80;41.90;;;;;;5013332;28;20422;-53
2021/05/16 04:35:37;;;;;;;4.63;1.70;;;21.70;41.80;;;;;;5013353;28;20076;-49
2021/05/16 04:38:03;;;;;;;4.40;1.55;;;21.70;41.80;;;;;;5013461;28;20026;-53
2021/05/16 04:40:28;;;;;;;4.25;1.90;;;21.70;41.80;;;;;;5013787;28;20041;-52
2021/05/16 04:42:55;;;;;;;4.50;1.65;;;21.70;41.80;;;;;;5013149;28;20418;-54
2021/05/16 04:45:21;;;;;;;5.35;1.90;;;21.70;41.80;;;;;;5012922;28;20034;-49
2021/05/16 04:47:47;;;;;;;4.22;1.65;;;21.70;41.80;;;;;;5013391;28;20117;-52
2021/05/16 04:50:15;;;;;;;4.18;1.90;;;21.70;41.80;;;;;;5013446;28;20417;-48
2021/05/16 04:52:41;;;;;;;3.67;1.45;;;21.70;41.80;;;;;;5012094;28;20121;-52
2021/05/16 04:55:08;;;;;;;4.82;1.63;;;21.70;41.80;;;;;;5012718;28;20041;-53
2021/05/16 04:57:33;;;;;;;3.25;1.65;;;21.70;41.80;;;;;;5012810;28;20025;-54
2021/05/16 05:00:01;;;;;;;4.60;1.50;;;21.70;41.80;;;;;;5012470;28;20442;-53
2021/05/16 05:02:27;;;;;;;5.07;1.70;;;21.70;41.80;;;;;;5012610;28;20077;-53
2021/05/16 05:04:54;;;;;;;5.95;2.05;;;21.70;41.80;;;;;;5011907;28;20466;-55
2021/05/16 05:07:20;;;;;;;5.28;1.80;;;21.70;41.80;;;;;;5011471;28;20034;-52
2021/05/16 05:09:45;;;;;;;3.88;1.50;;;21.70;41.80;;;;;;5012463;28;20080;-54
2021/05/16 05:12:11;;;;;;;4.13;1.60;;;21.70;41.80;;;;;;5012845;28;20033;-49
2021/05/16 05:14:37;;;;;;;3.75;1.50;;;21.70;41.80;;;;;;5012346;28;20025;-55
2021/05/16 05:17:03;;;;;;;4.63;1.83;;;21.70;41.80;;;;;;5012052;28;20038;-53
2021/05/16 05:19:29;;;;;;;3.17;1.67;;;21.70;41.80;;;;;;5010678;28;20747;-53
2021/05/16 05:21:54;;;;;;;4.85;2.08;;;21.70;41.80;;;;;;5011668;28;20354;-52
2021/05/16 05:24:21;;;;;;;4.22;1.83;;;21.70;41.80;;;;;;5012116;28;20036;-52
2021/05/16 05:26:47;;;;;;;4.30;1.95;;;21.70;41.70;;;;;;5013268;28;20034;-57
2021/05/16 05:29:13;;;;;;;4.70;1.92;;;21.70;41.70;;;;;;5012044;28;20037;-52
2021/05/16 05:31:39;;;;;;;3.75;1.60;;;21.70;41.70;;;;;;5010905;28;20060;-54
2021/05/16 05:34:04;;;;;;;4.13;1.80;;;21.70;41.80;;;;;;5012269;28;20044;-55
2021/05/16 05:36:30;;;;;;;3.58;1.88;;;21.70;41.80;;;;;;5012282;28;20026;-52
2021/05/16 05:38:57;;;;;;;4.18;1.80;;;21.70;41.80;;;;;;5011825;28;20042;-49
2021/05/16 05:41:23;;;;;;;3.40;1.48;;;21.70;41.80;;;;;;5012322;28;20113;-52
2021/05/16 05:43:49;;;;;;;3.45;1.73;;;21.60;41.80;;;;;;5012113;28;20102;-55
2021/05/16 05:46:15;;;;;;;5.63;1.98;;;21.60;41.80;;;;;;5010499;28;20049;-54
2021/05/16 05:48:40;;;;;;;4.47;1.98;;;21.60;41.80;;;;;;5012548;28;20095;-53
2021/05/16 05:51:06;;;;;;;4.60;2.00;;;21.70;41.90;;;;;;5010664;28;20026;-57
2021/05/16 05:53:33;;;;;;;3.90;1.85;;;21.70;41.90;;;;;;5011494;28;20030;-52
2021/05/16 05:55:58;;;;;;;4.38;1.80;;;21.60;41.80;;;;;;5012311;28;20160;-54
2021/05/16 05:58:24;;;;;;;5.35;1.95;;;21.60;41.80;;;;;;5012202;28;20033;-52
2021/05/16 06:00:50;;;;;;;5.47;2.00;;;21.70;41.80;;;;;;5010117;28;20125;-54
2021/05/16 06:03:17;;;;;;;3.78;1.80;;;21.70;41.80;;;;;;5010182;28;20060;-51
2021/05/16 06:05:42;;;;;;;4.70;2.05;;;21.60;41.80;;;;;;5011335;28;20029;-55
2021/05/16 06:08:08;;;;;;;5.38;2.33;;;21.60;41.70;;;;;;5012248;28;20456;-50
2021/05/16 06:10:34;;;;;;;5.38;1.92;;;21.60;42.40;;;;;;5011669;28;20338;-55
2021/05/16 06:13:00;;;;;;;4.65;2.03;;;21.60;41.80;;;;;;5011299;28;20072;-53
2021/05/16 06:15:25;;;;;;;7.75;2.05;;;21.60;41.80;;;;;;5010274;28;20034;-50
2021/05/16 06:17:52;;;;;;;5.65;2.00;;;21.60;41.80;;;;;;5011796;28;20168;-48
2021/05/16 06:20:18;;;;;;;4.53;1.55;;;21.60;41.80;;;;;;5010744;28;20107;-52
2021/05/16 06:22:43;;;;;;;4.45;1.70;;;21.70;41.90;;;;;;5011276;28;20477;-54
2021/05/16 06:25:10;;;;;;;5.10;1.98;;;21.60;41.80;;;;;;5011088;28;20040;-55
2021/05/16 06:27:35;;;;;;;5.40;2.33;;;21.60;41.80;;;;;;5011395;28;20049;-49
2021/05/16 06:30:04;;;;;;;3.47;1.50;;;21.60;41.80;;;;;;5010503;28;20430;-57
2021/05/16 06:32:29;;;;;;;4.03;1.63;;;21.60;41.90;;;;;;5010836;28;20337;-50
2021/05/16 06:34:55;;;;;;;7.40;1.83;;;21.60;41.90;;;;;;5011422;28;20030;-56
2021/05/16 06:37:21;;;;;;;4.85;1.95;;;21.70;41.90;;;;;;5011746;28;20042;-46
2021/05/16 06:39:47;;;;;;;4.63;2.05;;;21.60;41.80;;;;;;5012010;28;20053;-48
2021/05/16 06:42:12;;;;;;;4.30;1.70;;;21.60;41.80;;;;;;5012500;28;20026;-49
2021/05/16 06:44:38;;;;;;;4.93;2.08;;;21.60;41.90;;;;;;5012618;28;20349;-55
2021/05/16 06:47:04;;;;;;;4.65;1.90;;;21.60;41.90;;;;;;5011483;28;20041;-54
2021/05/16 06:49:30;;;;;;;3.45;1.75;;;21.60;41.90;;;;;;5012399;28;20041;-51
2021/05/16 06:51:56;;;;;;;4.32;2.00;;;21.60;41.90;;;;;;5011288;28;20105;-52
2021/05/16 06:54:22;;;;;;;5.15;2.00;;;21.70;42.00;;;;;;5008844;28;20120;-54
2021/05/16 06:56:48;;;;;;;5.47;2.47;;;21.70;42.00;;;;;;5012671;28;20460;-52
2021/05/16 06:59:13;;;;;;;5.57;2.20;;;21.70;42.10;;;;;;5014304;28;20046;-52
2021/05/16 07:01:39;;;;;;;4.25;1.80;;;21.80;42.20;;;;;;5010481;28;20045;-54
2021/05/16 07:04:05;;;;;;;4.45;1.90;;;21.80;42.10;;;;;;5010122;28;20345;-60
2021/05/16 07:06:32;;;;;;;4.57;1.80;;;22.00;42.10;;;;;;5013481;28;20460;-53
2021/05/16 07:08:58;;;;;;;4.70;1.95;;;22.10;42.00;;;;;;5009159;28;20034;-56
2021/05/16 07:11:24;;;;;;;5.07;2.00;;;22.10;41.70;;;;;;5010562;28;20041;-54
2021/05/16 07:13:51;;;;;;;3.95;1.85;;;22.30;41.60;;;;;;5008961;28;20026;-56
2021/05/16 07:16:16;;;;;;;5.07;1.67;;;22.30;41.40;;;;;;5008095;28;20050;-57
2021/05/16 07:18:42;;;;;;;4.82;2.08;;;22.50;41.30;;;;;;5011063;28;20070;-55
2021/05/16 07:21:08;;;;;;;4.40;1.70;;;22.60;41.10;;;;;;5009454;28;20025;-57
2021/05/16 07:23:34;;;;;;;4.13;1.98;;;22.70;41.00;;;;;;4999243;28;20462;-59
2021/05/16 07:26:00;;;;;;;5.03;1.60;;;22.80;40.80;;;;;;5011309;28;20045;-59
2021/05/16 07:28:26;;;;;;;5.90;1.90;;;22.90;41.30;;;;;;5013733;28;20045;-59
2021/05/16 07:30:52;;;;;;;5.03;1.83;;;23.00;40.60;;;;;;5014625;28;20034;-52
2021/05/16 07:33:18;;;;;;;4.65;2.08;;;23.10;40.50;;;;;;5013862;28;20037;-60
2021/05/16 07:35:43;;;;;;;4.53;1.80;;;23.10;40.30;;;;;;5013399;28;20213;-53
2021/05/16 07:38:10;;;;;;;4.03;1.63;;;23.20;40.10;;;;;;5013986;28;20034;-55
2021/05/16 07:40:37;;;;;;;5.22;2.00;;;23.30;40.00;;;;;;5014214;28;20111;-60
2021/05/16 07:43:04;;;;;;;5.05;1.52;;;23.40;39.90;;;;;;5014351;28;20049;-54
2021/05/16 07:45:31;;;;;;;3.40;1.48;;;23.50;39.70;;;;;;5013776;28;20087;-58
2021/05/16 07:47:57;;;;;;;4.10;1.83;;;23.60;39.60;;;;;;5014069;28;20428;-56
2021/05/16 07:50:23;;;;;;;3.85;1.88;;;23.70;39.40;;;;;;5013918;28;20112;-56
2021/05/16 07:52:48;;;;;;;5.43;1.95;;;23.70;39.20;;;;;;5013539;28;20029;-61
2021/05/16 07:55:14;;;;;;;4.35;1.73;;;23.80;39.10;;;;;;5013726;28;20798;-59
2021/05/16 07:57:40;;;;;;;3.60;1.60;;;23.90;39.00;;;;;;5013337;28;20053;-57
2021/05/16 08:00:11;;;;;;;4.60;1.67;;;23.90;38.90;;;;;;5013479;28;20126;-60
2021/05/16 08:02:42;;;;;;;4.13;1.83;;;24.00;38.80;;;;;;5013737;28;20053;-58
2021/05/16 08:05:10;;;;;;;4.50;1.75;;;24.00;38.80;;;;;;5012948;28;20480;-50
2021/05/16 08:07:36;;;;;;;3.35;1.55;;;24.00;38.60;;;;;;5014157;28;20081;-58
2021/05/16 08:10:02;;;;;;;4.35;1.85;;;24.10;38.60;;;;;;5013298;28;20046;-53
2021/05/16 08:12:28;;;;;;;4.05;1.60;;;24.10;38.50;;;;;;5014059;28;20076;-55
2021/05/16 08:14:53;;;;;;;4.15;1.85;;;24.10;38.40;;;;;;5013373;28;20026;-55
2021/05/16 08:17:19;;;;;;;3.20;1.50;;;24.10;38.40;;;;;;5013536;28;20149;-56
2021/05/16 08:19:45;;;;;;;3.97;1.75;;;24.10;38.30;;;;;;5014314;28;20029;-54
2021/05/16 08:22:11;;;;;;;5.03;1.60;;;24.10;38.20;;;;;;5013232;28;20410;-57
2021/05/16 08:24:37;;;;;;;4.13;1.60;;;24.10;38.20;;;;;;5013566;28;20029;-56
2021/05/16 08:27:07;;;;;;;4.88;1.90;;;24.10;38.20;;;;;;5007731;28;20384;-49
2021/05/16 08:29:35;;;;;;;3.70;1.65;;;24.10;38.20;;;;;;5009583;28;20414;-51
2021/05/16 08:32:06;;;;;;;2.83;1.42;;;24.10;38.20;;;;;;5011638;28;20401;-62
2021/05/16 08:34:33;;;;;;;3.83;1.75;;;24.20;38.30;;;;;;5009706;28;20348;-62
2021/05/16 08:36:59;;;;;;;4.00;2.00;;;24.10;38.20;;;;;;5010191;28;20038;-54
2021/05/16 08:39:25;;;;;;;3.97;1.67;;;24.10;38.30;;;;;;5008732;28;20409;-60
2021/05/16 08:41:51;;;;;;;4.15;1.85;;;24.10;38.20;;;;;;5011019;28;20057;-58
2021/05/16 08:44:18;;;;;;;2.47;1.50;;;24.10;38.20;;;;;;5011764;28;20446;-62
2021/05/16 08:46:44;;;;;;;4.22;2.22;;;24.10;38.20;;;;;;5010880;28;20053;-55
2021/05/16 08:49:10;;;;;;;4.25;1.75;;;24.20;38.20;;;;;;5012116;28;20103;-61
2021/05/16 08:51:37;;;;;;;6.07;2.08;;;24.10;38.20;;;;;;5012832;28;20026;-64
2021/05/16 08:54:04;;;;;;;3.63;1.70;;;24.20;38.30;;;;;;5012236;28;20021;-64
2021/05/16 08:56:29;;;;;;;4.88;2.15;;;24.10;38.20;;;;;;5012914;28;20030;-61
2021/05/16 08:58:55;;;;;;;5.28;1.90;;;24.20;38.20;;;;;;5012349;28;20045;-57
2021/05/16 09:01:25;;;;;;;3.72;1.98;;;24.20;38.30;;;;;;5013579;28;20125;-60
2021/05/16 09:03:52;;;;;;;5.10;1.85;;;24.20;38.20;;;;;;5010572;28;20444;-61
2021/05/16 09:06:31;;;;;;;4.35;1.80;;;24.20;38.20;;;;;;5013362;28;20029;-62
2021/05/16 09:08:57;;;;;;;3.30;1.52;;;24.20;38.20;;;;;;5012776;28;20030;-59
2021/05/16 09:11:23;;;;;;;4.40;2.08;;;24.20;38.10;;;;;;5012789;28;20192;-57
2021/05/16 09:13:55;;;;;;;5.85;2.25;;;24.20;38.00;;;;;;5013609;28;20153;-56
2021/05/16 09:16:21;;;;;;;3.47;1.65;;;24.20;38.00;;;;;;5009945;28;20189;-58
2021/05/16 09:18:48;;;;;;;4.28;1.88;;;24.20;38.00;;;;;;5012995;28;20034;-61
2021/05/16 09:21:30;;;;;;;4.15;1.88;;;24.30;38.00;;;;;;5012953;28;20034;-62
2021/05/16 09:24:02;;;;;;;3.53;1.58;;;24.30;38.00;;;;;;5012936;28;20058;-55
2021/05/16 09:26:32;;;;;;;3.67;1.67;;;24.30;38.00;;;;;;5013503;28;20438;-60
2021/05/16 09:29:20;;;;;;;3.63;1.55;;;24.30;38.00;;;;;;5011190;28;20034;-55
2021/05/16 09:31:46;;;;;;;3.70;1.83;;;24.30;38.00;;;;;;5012475;28;20079;-61
2021/05/16 09:34:13;;;;;;;4.35;1.60;;;24.30;38.10;;;;;;5012593;28;20037;-49
2021/05/16 09:36:41;;;;;;;2.72;1.48;;;24.30;38.00;;;;;;5011470;28;20022;-49
2021/05/16 09:39:20;;;;;;;2.72;1.50;;;24.30;38.00;;;;;;5013723;28;20029;-62
2021/05/16 09:42:13;;;;;;;3.95;1.52;;;24.30;37.90;;;;;;5015029;28;20030;-63
2021/05/16 09:44:42;;;;;;;3.58;1.40;;;24.30;37.80;;;;;;5015113;28;20040;-66
2021/05/16 09:47:28;;;;;;;4.20;1.50;;;24.40;37.90;;;;;;5014485;28;20033;-64
2021/05/16 09:49:59;;;;;;;3.45;1.50;;;24.40;37.80;;;;;;5012832;28;20449;-63
2021/05/16 09:52:35;;;;;;;3.20;1.90;;;24.40;37.70;;;;;;5010836;28;20041;-62
2021/05/16 09:55:13;;;;;;;5.25;1.80;;;24.40;37.60;;;;;;5011784;28;20029;-62
2021/05/16 09:57:41;;;;;;;3.75;2.03;;;24.40;38.20;;;;;;5011183;28;20034;-60
2021/05/16 10:00:09;;;;;;;8.30;4.18;;;24.40;37.60;;;;;;5009828;28;20038;-61
2021/05/16 10:02:36;;;;;;;8.95;4.90;;;24.40;38.10;;;;;;5011184;28;20047;-52
2021/05/16 10:05:06;;;;;;;8.80;4.30;;;24.40;38.60;;;;;;5013653;28;20057;-60
2021/05/16 10:07:32;;;;;;;8.25;4.88;;;24.50;38.90;;;;;;5013800;28;20038;-60
2021/05/16 10:09:59;;;;;;;9.90;5.50;;;24.40;39.00;;;;;;5013306;28;20096;-60
2021/05/16 10:12:25;;;;;;;12.50;6.15;;;24.50;39.50;;;;;;5011454;28;20036;-59
2021/05/16 10:15:23;;;;;;;12.00;6.93;;;24.60;40.00;;;;;;5014149;28;20033;-59
2021/05/16 10:17:54;;;;;;;10.68;5.35;;;24.60;40.50;;;;;;4994228;28;20069;-64
2021/05/16 10:20:22;;;;;;;9.73;4.60;;;24.60;40.70;;;;;;5013020;28;20049;-66
2021/05/16 10:22:56;;;;;;;10.95;4.97;;;24.60;40.70;;;;;;5013632;28;20042;-64
2021/05/16 10:25:39;;;;;;;8.93;4.18;;;24.70;40.60;;;;;;5012844;28;20037;-63
2021/05/16 10:28:05;;;;;;;5.82;3.47;;;24.70;40.30;;;;;;5012454;28;20445;-62
2021/05/16 10:30:30;;;;;;;6.00;3.22;;;24.70;40.10;;;;;;5007256;28;20026;-59
2021/05/16 10:32:56;;;;;;;6.68;3.17;;;24.70;39.80;;;;;;5007495;28;20037;-64
2021/05/16 10:35:23;;;;;;;4.07;2.17;;;24.70;39.60;;;;;;5013409;28;20055;-61
2021/05/16 10:37:55;;;;;;;6.15;3.05;;;24.70;39.50;;;;;;5011354;28;20080;-62
2021/05/16 10:40:25;;;;;;;4.22;2.38;;;24.80;39.40;;;;;;5013364;28;20128;-60
2021/05/16 10:43:01;;;;;;;6.22;2.58;;;24.80;39.30;;;;;;5012809;28;20493;-62
2021/05/16 10:45:37;;;;;;;5.75;2.88;;;24.70;39.20;;;;;;5013334;28;20131;-61
2021/05/16 10:48:16;;;;;;;6.05;3.03;;;24.80;39.00;;;;;;5011497;28;20044;-62
2021/05/16 10:50:47;;;;;;;5.22;2.60;;;24.80;38.90;;;;;;5012353;28;20065;-64
2021/05/16 10:53:20;;;;;;;5.47;2.67;;;24.80;38.70;;;;;;5009378;28;20068;-61
2021/05/16 10:55:52;;;;;;;4.68;2.33;;;24.80;38.50;;;;;;5011668;28;20449;-61
2021/05/16 10:58:33;;;;;;;8.13;3.58;;;24.80;38.50;;;;;;5011533;28;20022;-58
2021/05/16 11:01:08;;;;;;;7.28;3.25;;;24.80;38.70;;;;;;5010181;28;20038;-57
2021/05/16 11:03:51;;;;;;;;;;;24.80;39.00;;;;;;5016674;28;20056;-53
2021/05/16 11:06:20;;;;;;;8.48;3.78;;;24.80;39.20;;;;;;5015077;28;20260;-59
2021/05/16 11:08:49;;;;;;;10.07;4.32;;;24.90;39.60;;;;;;5008849;28;20042;-58
2021/05/16 11:11:52;;;;;;;10.25;4.47;;;24.90;40.00;;;;;;5014606;28;20109;-59
2021/05/16 11:14:19;;;;;;;8.38;4.72;;;25.00;40.40;;;;;;5016830;28;20041;-56
2021/05/16 11:17:11;;;;;;;9.73;4.53;;;25.00;40.60;;;;;;5016078;28;20105;-57
2021/05/16 11:19:48;;;;;;;7.93;3.53;;;25.00;40.80;;;;;;5016694;28;20037;-61
2021/05/16 11:22:18;;;;;;;6.60;3.38;;;25.00;40.60;;;;;;5008052;28;20471;-61
2021/05/16 11:24:47;;;;;;;8.60;3.47;;;25.00;40.30;;;;;;5009663;28;20034;-60
2021/05/16 11:27:26;;;;;;;6.72;2.97;;;25.00;40.00;;;;;;5013293;28;20029;-60
2021/05/16 11:30:02;;;;;;;4.60;2.50;;;25.00;39.70;;;;;;5015244;28;20092;-62
2021/05/16 11:32:32;;;;;;;8.15;3.13;;;25.00;39.30;;;;;;5015376;28;20038;-62
2021/05/16 11:35:15;;;;;;;3.83;2.20;;;25.00;39.00;;;;;;5015228;28;20123;-62
2021/05/16 11:37:42;;;;;;;5.32;2.00;;;25.00;38.70;;;;;;5015835;28;20034;-58
2021/05/16 11:40:21;;;;;;;5.65;2.55;;;25.00;38.50;;;;;;5007030;28;20038;-61
2021/05/16 11:43:01;;;;;;;4.55;2.00;;;25.00;38.20;;;;;;5015860;28;20041;-62
2021/05/16 11:45:43;;;;;;;4.20;2.10;;;25.00;38.10;;;;;;5014253;28;20029;-60
2021/05/16 11:48:29;;;;;;;3.55;1.55;;;25.00;38.00;;;;;;5016782;28;20042;-63
2021/05/16 11:51:08;;;;;;;3.00;1.88;;;25.00;37.70;;;;;;5014772;28;20109;-62
2021/05/16 11:53:42;;;;;;;5.43;1.90;;;25.00;37.60;;;;;;5016434;28;20427;-64
2021/05/16 11:56:18;;;;;;;3.85;2.00;;;25.00;37.50;;;;;;5004503;28;20056;-61
2021/05/16 11:58:56;;;;;;;3.45;1.92;;;25.00;37.30;;;;;;5002714;28;20406;-66
2021/05/16 12:01:26;;;;;;;2.65;1.48;;;24.90;37.10;;;;;;5009623;28;20048;-59
2021/05/16 12:03:54;;;;;;;3.17;1.50;;;24.90;37.00;;;;;;5008566;28;20064;-61
2021/05/16 12:06:22;;;;;;;5.07;1.75;;;24.90;36.90;;;;;;5008116;28;20034;-60
2021/05/16 12:09:00;;;;;;;3.15;1.50;;;24.90;36.80;;;;;;5010631;28;20109;-62
2021/05/16 12:11:29;;;;;;;3.20;1.35;;;24.90;36.70;;;;;;5006986;28;20041;-61
2021/05/16 12:14:10;;;;;;;2.50;1.33;;;24.80;36.80;;;;;;5008960;28;20026;-61
2021/05/16 12:16:56;;;;;;;3.38;1.45;;;24.90;36.90;;;;;;5008568;28;20054;-60
2021/05/16 12:19:37;;;;;;;3.75;1.27;;;24.90;37.00;;;;;;5003717;28;20065;-62
2021/05/16 12:22:14;;;;;;;3.22;1.35;;;24.80;37.00;;;;;;5009486;28;20033;-62
2021/05/16 12:24:46;;;;;;;3.47;1.27;;;24.80;37.00;;;;;;5011466;28;20044;-62
2021/05/16 12:27:17;;;;;;;3.42;1.33;;;24.80;37.10;;;;;;5007970;28;20072;-62
2021/05/16 12:29:47;;;;;;;2.70;1.45;;;24.80;37.10;;;;;;4993738;28;20062;-62
2021/05/16 12:32:21;;;;;;;1.85;1.10;;;24.80;37.10;;;;;;5012959;28;20045;-62
2021/05/16 12:34:48;;;;;;;3.17;1.05;;;24.80;37.10;;;;;;5011795;28;20025;-62
2021/05/16 12:37:19;;;;;;;2.03;1.02;;;24.80;37.10;;;;;;5009438;28;20034;-62
2021/05/16 12:39:47;;;;;;;2.95;1.60;;;24.80;37.00;;;;;;5009940;28;20061;-61
2021/05/16 12:42:41;;;;;;;1.95;1.00;;;24.80;37.10;;;;;;5002585;28;20084;-63
2021/05/16 12:45:31;;;;;;;1.98;0.98;;;24.80;37.00;;;;;;5008141;28;20029;-61
2021/05/16 12:48:05;;;;;;;2.50;1.10;;;24.80;36.90;;;;;;5009293;28;20018;-62
2021/05/16 12:50:37;;;;;;;4.43;1.20;;;24.80;37.00;;;;;;5008006;28;20034;-60
2021/05/16 12:53:26;;;;;;;2.75;1.45;;;24.70;37.00;;;;;;5007974;28;20365;-62
2021/05/16 12:56:12;;;;;;;2.28;1.30;;;24.80;37.00;;;;;;5007726;28;20038;-60